Time;durP1;ratioP1;P1;durP2;ratioP2;P2;SDS_P1;SDS_P2;PMS_P1;PMS_P2;Temp;Humidity;BMP_temperature;BMP_pressure;BME280_temperature;BME280_humidity;BME280_pressure;Samples;Min_cycle;Max_cycle;Signal;HPM_P1;HPM_P2
2022/10/19 00:00:50;;;;;;;9.55;2.10;;;12.40;99.90;;;;;;5075277;28;20059;-78
2022/10/19 00:03:16;;;;;;;7.03;1.98;;;12.30;99.90;;;;;;5079204;28;20119;-78
2022/10/19 00:05:41;;;;;;;6.57;1.88;;;12.40;99.90;;;;;;5092439;28;20058;-78
2022/10/19 00:08:07;;;;;;;8.15;2.20;;;13.60;99.90;;;;;;5092189;28;20048;-78
2022/10/19 00:10:33;;;;;;;8.50;1.95;;;13.80;99.90;;;;;;5089724;28;20396;-77
2022/10/19 00:12:59;;;;;;;7.43;2.20;;;12.40;99.90;;;;;;5110930;28;20586;-78
2022/10/19 00:15:25;;;;;;;7.55;1.73;;;12.40;99.90;;;;;;5111359;28;20438;-78
2022/10/19 00:17:50;;;;;;;6.28;1.92;;;12.40;99.90;;;;;;5100599;28;20070;-77
2022/10/19 00:20:16;;;;;;;8.23;2.47;;;12.50;99.90;;;;;;5097122;28;20072;-77
2022/10/19 00:22:42;;;;;;;5.90;2.08;;;12.60;99.90;;;;;;5096639;28;20036;-78
2022/10/19 00:25:08;;;;;;;13.65;2.60;;;12.40;99.90;;;;;;5081875;28;20100;-78
2022/10/19 00:27:34;;;;;;;10.73;2.03;;;12.40;99.90;;;;;;5095984;28;20202;-78
2022/10/19 00:30:00;;;;;;;8.02;2.10;;;12.90;99.90;;;;;;5096358;28;20096;-77
2022/10/19 00:32:26;;;;;;;10.23;2.15;;;12.40;99.90;;;;;;5081852;28;20044;-78
2022/10/19 00:34:51;;;;;;;7.45;1.80;;;12.40;99.90;;;;;;5110439;28;20038;-78
2022/10/19 00:37:17;;;;;;;6.03;1.90;;;12.90;99.90;;;;;;5097779;28;20100;-78
2022/10/19 00:39:43;;;;;;;8.10;2.13;;;12.60;99.90;;;;;;5097620;28;20048;-78
2022/10/19 00:42:12;;;;;;;8.50;1.90;;;12.90;99.90;;;;;;5095789;28;20036;-78
2022/10/19 00:44:37;;;;;;;9.50;2.08;;;12.50;99.90;;;;;;5096501;28;20054;-78
2022/10/19 00:47:06;;;;;;;10.38;1.90;;;12.60;99.90;;;;;;5079486;28;20473;-77
2022/10/19 00:49:36;;;;;;;8.07;2.17;;;12.50;99.90;;;;;;5092799;28;20405;-78
2022/10/19 00:52:05;;;;;;;7.05;1.92;;;12.50;99.90;;;;;;5116429;28;20066;-78
2022/10/19 00:54:32;;;;;;;11.05;2.30;;;12.50;99.90;;;;;;5097885;28;20108;-77
2022/10/19 00:56:59;;;;;;;9.40;2.30;;;12.50;99.90;;;;;;5115976;28;20071;-78
2022/10/19 00:59:26;;;;;;;7.13;2.13;;;12.50;99.90;;;;;;5116216;28;20148;-78
2022/10/19 01:01:53;;;;;;;9.75;2.00;;;12.90;99.90;;;;;;5080641;28;20084;-78
2022/10/19 01:04:20;;;;;;;6.57;1.90;;;12.60;99.90;;;;;;5081033;28;20081;-78
2022/10/19 01:06:46;;;;;;;9.98;2.28;;;12.60;99.90;;;;;;5115832;28;20049;-78
2022/10/19 01:09:12;;;;;;;8.15;2.10;;;12.60;99.90;;;;;;5079641;28;20401;-78
2022/10/19 01:12:01;;;;;;;9.05;2.22;;;12.60;99.90;;;;;;5061481;28;20032;-77
2022/10/19 01:14:50;;;;;;;5.50;1.55;;;12.60;99.90;;;;;;5077811;28;20083;-78
2022/10/19 01:18:03;;;;;;;10.02;2.03;;;12.60;99.90;;;;;;5077182;28;20044;-78
2022/10/19 01:21:15;;;;;;;9.85;2.28;;;12.60;99.90;;;;;;5102222;28;20066;-77
2022/10/19 01:24:04;;;;;;;7.78;2.30;;;12.60;99.90;;;;;;5095009;28;20043;-78
2022/10/19 01:26:48;;;;;;;7.57;1.90;;;12.60;99.90;;;;;;5095251;28;20039;-78
2022/10/19 01:29:21;;;;;;;7.40;2.00;;;12.70;99.90;;;;;;5098233;28;20065;-78
2022/10/19 01:31:59;;;;;;;7.85;1.98;;;13.50;99.90;;;;;;5107688;28;20040;-77
2022/10/19 01:34:35;;;;;;;7.63;1.60;;;13.70;99.90;;;;;;5082967;28;20050;-78
2022/10/19 01:37:06;;;;;;;7.55;1.77;;;12.70;99.90;;;;;;5096584;28;20048;-78
2022/10/19 01:39:43;;;;;;;5.75;1.70;;;12.70;99.90;;;;;;5114876;28;20059;-78
2022/10/19 01:42:28;;;;;;;9.43;1.80;;;13.20;99.90;;;;;;5114513;28;20035;-78
2022/10/19 01:45:03;;;;;;;7.00;1.60;;;12.70;99.90;;;;;;5080172;28;20073;-78
2022/10/19 01:47:45;;;;;;;9.70;1.98;;;12.60;99.90;;;;;;5114770;28;20039;-78
2022/10/19 01:50:16;;;;;;;6.82;1.80;;;12.60;99.90;;;;;;5097217;28;20397;-78
2022/10/19 01:52:43;;;;;;;7.65;1.75;;;12.20;99.90;;;;;;5114835;28;20077;-78
2022/10/19 01:55:11;;;;;;;7.95;1.80;;;12.70;99.90;;;;;;5114957;28;20549;-78
2022/10/19 01:57:45;;;;;;;7.60;1.70;;;12.60;99.90;;;;;;5114910;28;20047;-78
2022/10/19 02:00:13;;;;;;;7.35;1.80;;;13.20;99.90;;;;;;5096882;28;20058;-78
2022/10/19 02:02:44;;;;;;;11.10;2.17;;;12.70;99.90;;;;;;5095206;28;20051;-78
2022/10/19 02:05:12;;;;;;;7.80;2.08;;;12.70;99.90;;;;;;5114871;28;20043;-78
2022/10/19 02:07:40;;;;;;;10.90;2.10;;;12.80;99.90;;;;;;5096089;28;20035;-78
2022/10/19 02:10:06;;;;;;;10.60;1.90;;;13.20;99.90;;;;;;5114847;28;20097;-78
2022/10/19 02:12:33;;;;;;;6.20;1.70;;;12.70;99.90;;;;;;5077398;28;20032;-78
2022/10/19 02:15:04;;;;;;;10.10;2.00;;;12.70;99.90;;;;;;5095408;28;20052;-78
2022/10/19 02:17:36;;;;;;;9.70;2.20;;;13.80;99.90;;;;;;5060254;28;20048;-78
2022/10/19 02:20:04;;;;;;;7.72;1.88;;;12.70;99.90;;;;;;5060151;28;20399;-78
2022/10/19 02:22:30;;;;;;;10.52;2.10;;;11.90;99.90;;;;;;5075766;28;20055;-77
2022/10/19 02:24:56;;;;;;;10.07;1.80;;;12.70;99.90;;;;;;5096231;28;20040;-78
2022/10/19 02:27:22;;;;;;;9.82;1.92;;;12.70;99.90;;;;;;5092653;28;20443;-78
2022/10/19 02:29:48;;;;;;;7.30;1.83;;;13.20;99.90;;;;;;5075979;28;20446;-78
2022/10/19 02:32:14;;;;;;;12.40;2.25;;;13.60;99.90;;;;;;5093421;28;20039;-78
2022/10/19 02:34:40;;;;;;;10.63;2.00;;;13.10;99.90;;;;;;5094113;28;20104;-78
2022/10/19 02:37:06;;;;;;;10.98;2.20;;;12.60;99.90;;;;;;5088873;28;20066;-78
2022/10/19 02:39:32;;;;;;;10.98;2.22;;;12.60;99.90;;;;;;5095467;28;20396;-78
2022/10/19 02:42:10;;;;;;;8.20;1.85;;;12.50;99.90;;;;;;5094650;28;20457;-78
2022/10/19 02:45:07;;;;;;;9.20;1.88;;;12.70;99.90;;;;;;5068599;28;20130;-78
2022/10/19 02:47:43;;;;;;;11.43;2.25;;;13.50;99.90;;;;;;5079390;28;20501;-78
2022/10/19 02:50:10;;;;;;;10.73;2.35;;;12.40;99.90;;;;;;5091679;28;20178;-78
2022/10/19 02:52:36;;;;;;;8.15;2.03;;;12.50;99.90;;;;;;5088744;28;20441;-78
2022/10/19 02:55:03;;;;;;;10.13;2.22;;;12.40;99.90;;;;;;5078278;28;20511;-78
2022/10/19 02:57:31;;;;;;;10.02;2.72;;;12.40;99.90;;;;;;5076568;28;20036;-78
2022/10/19 02:59:57;;;;;;;9.13;2.22;;;12.60;99.90;;;;;;5094707;28;20135;-78
2022/10/19 03:02:23;;;;;;;11.55;2.20;;;12.40;99.90;;;;;;5103892;28;20582;-78
2022/10/19 03:04:49;;;;;;;11.10;2.22;;;12.30;99.90;;;;;;5074815;28;20044;-78
2022/10/19 03:07:16;;;;;;;10.02;2.33;;;12.30;99.90;;;;;;5075769;28;20450;-78
2022/10/19 03:09:42;;;;;;;10.35;2.40;;;12.70;99.90;;;;;;5060054;28;20244;-78
2022/10/19 03:12:09;;;;;;;8.48;2.00;;;12.20;99.90;;;;;;5093292;28;20075;-78
2022/10/19 03:14:35;;;;;;;13.13;2.75;;;12.30;99.90;;;;;;5100937;28;20043;-78
2022/10/19 03:17:01;;;;;;;8.40;2.15;;;12.10;99.90;;;;;;5103789;28;20090;-78
2022/10/19 03:19:26;;;;;;;15.55;2.25;;;12.10;99.90;;;;;;5113173;28;20047;-78
2022/10/19 03:21:52;;;;;;;10.00;2.00;;;12.10;99.90;;;;;;5094511;28;20054;-78
2022/10/19 03:24:17;;;;;;;9.77;2.15;;;13.00;99.90;;;;;;5111892;28;20161;-77
2022/10/19 03:26:43;;;;;;;11.88;2.28;;;13.10;99.90;;;;;;5100039;28;20492;-78
2022/10/19 03:29:09;;;;;;;11.68;2.30;;;12.00;99.90;;;;;;5095283;28;20093;-78
2022/10/19 03:31:34;;;;;;;7.90;2.53;;;12.10;99.90;;;;;;5102395;28;20397;-78
2022/10/19 03:34:00;;;;;;;10.82;1.98;;;12.10;99.90;;;;;;5085101;28;20218;-78
2022/10/19 03:36:31;;;;;;;13.13;2.33;;;13.40;99.90;;;;;;5092200;28;20067;-78
2022/10/19 03:38:59;;;;;;;10.45;2.30;;;12.40;99.90;;;;;;5095198;28;20112;-78
2022/10/19 03:41:28;;;;;;;12.68;2.45;;;13.30;99.90;;;;;;5113154;28;20054;-78
2022/10/19 03:43:54;;;;;;;16.40;2.38;;;12.20;99.90;;;;;;5113419;28;20381;-77
2022/10/19 03:46:20;;;;;;;8.40;1.95;;;12.30;99.90;;;;;;5113066;28;20036;-78
2022/10/19 03:48:46;;;;;;;10.07;2.33;;;12.70;99.90;;;;;;5113367;28;20044;-78
2022/10/19 03:51:18;;;;;;;11.45;2.15;;;12.20;99.90;;;;;;5094366;28;20032;-78
2022/10/19 03:53:45;;;;;;;13.48;2.60;;;12.50;99.90;;;;;;5113846;28;20410;-78
2022/10/19 03:56:17;;;;;;;11.73;2.17;;;12.20;99.90;;;;;;5118106;28;20043;-78
2022/10/19 03:58:44;;;;;;;11.35;2.40;;;12.20;99.90;;;;;;5118426;28;20043;-79
2022/10/19 04:01:22;;;;;;;14.57;3.00;;;12.40;99.90;;;;;;5119785;28;20031;-76
2022/10/19 04:03:53;;;;;;;12.45;2.40;;;12.30;99.90;;;;;;5102004;28;20086;-78
2022/10/19 04:06:25;;;;;;;15.80;2.70;;;12.30;99.90;;;;;;5120470;28;20051;-78
2022/10/19 04:08:51;;;;;;;8.65;2.10;;;12.30;99.90;;;;;;5091371;28;20040;-78
2022/10/19 04:11:21;;;;;;;14.00;2.50;;;12.40;99.90;;;;;;5070132;28;20369;-78
2022/10/19 04:13:50;;;;;;;13.73;2.45;;;13.40;99.90;;;;;;5100564;28;20131;-78
2022/10/19 04:16:16;;;;;;;10.68;2.20;;;13.50;99.90;;;;;;5094675;28;20069;-78
2022/10/19 04:18:42;;;;;;;12.48;2.30;;;12.30;99.90;;;;;;5100980;28;20079;-78
2022/10/19 04:21:37;;;;;;;12.55;2.20;;;12.30;99.90;;;;;;5086537;28;20505;-77
2022/10/19 04:24:20;;;;;;;11.85;2.40;;;12.30;99.90;;;;;;5090304;28;20044;-77
2022/10/19 04:26:49;;;;;;;8.35;2.33;;;12.70;99.90;;;;;;5112668;28;20066;-78
2022/10/19 04:29:16;;;;;;;11.32;2.30;;;12.70;99.90;;;;;;5100081;28;20055;-78
2022/10/19 04:31:42;;;;;;;15.95;2.90;;;13.30;99.90;;;;;;5098393;28;20422;-78
2022/10/19 04:34:08;;;;;;;15.18;2.05;;;12.20;99.90;;;;;;5099931;28;20127;-78
2022/10/19 04:36:34;;;;;;;13.23;2.17;;;12.20;99.90;;;;;;5082950;28;20044;-78
2022/10/19 04:38:59;;;;;;;9.43;2.10;;;12.20;99.90;;;;;;5118580;28;20043;-78
2022/10/19 04:41:25;;;;;;;8.50;1.95;;;12.70;99.90;;;;;;5117395;28;20618;-78
2022/10/19 04:43:58;;;;;;;13.07;2.30;;;12.20;99.90;;;;;;5098283;28;20082;-78
2022/10/19 04:46:25;;;;;;;10.93;2.10;;;12.20;99.90;;;;;;5084039;28;20056;-78
2022/10/19 04:48:51;;;;;;;16.08;2.40;;;12.30;99.90;;;;;;5084329;28;20052;-77
2022/10/19 04:51:18;;;;;;;11.38;2.42;;;12.10;99.90;;;;;;5117978;28;20051;-78
2022/10/19 04:53:44;;;;;;;10.20;2.75;;;12.70;99.90;;;;;;5099957;28;20052;-77
2022/10/19 04:56:17;;;;;;;13.82;2.40;;;12.40;99.90;;;;;;5093113;28;20073;-78
2022/10/19 04:58:44;;;;;;;9.70;2.20;;;12.10;99.90;;;;;;5098889;28;20405;-77
2022/10/19 05:01:11;;;;;;;10.07;2.15;;;12.20;99.90;;;;;;5098864;28;20404;-77
2022/10/19 05:03:38;;;;;;;10.77;2.03;;;12.10;99.90;;;;;;5085305;28;20109;-77
2022/10/19 05:06:04;;;;;;;14.63;2.65;;;12.00;99.90;;;;;;5079578;28;20181;-77
2022/10/19 05:08:30;;;;;;;9.65;2.58;;;12.00;99.90;;;;;;5095775;28;20492;-78
2022/10/19 05:11:03;;;;;;;8.73;1.90;;;12.80;99.90;;;;;;5103160;28;20119;-78
2022/10/19 05:13:33;;;;;;;10.35;2.55;;;12.00;99.90;;;;;;5084240;28;20358;-78
2022/10/19 05:16:01;;;;;;;18.33;2.67;;;12.00;99.90;;;;;;5115723;28;20047;-78
2022/10/19 05:18:27;;;;;;;13.50;2.50;;;12.00;99.90;;;;;;5077144;28;20412;-77
2022/10/19 05:21:05;;;;;;;12.55;2.50;;;11.90;99.90;;;;;;5096199;28;20052;-78
2022/10/19 05:23:32;;;;;;;11.13;2.30;;;12.00;99.90;;;;;;5095869;28;20051;-78
2022/10/19 05:26:02;;;;;;;12.23;2.55;;;12.00;99.90;;;;;;5083137;28;20062;-78
2022/10/19 05:28:28;;;;;;;13.90;2.20;;;12.00;99.90;;;;;;5076989;28;20121;-78
2022/10/19 05:30:54;;;;;;;14.68;2.30;;;12.00;99.90;;;;;;5059712;28;20071;-78
2022/10/19 05:33:20;;;;;;;14.02;2.17;;;12.40;99.90;;;;;;5109372;28;20048;-78
2022/10/19 05:35:45;;;;;;;12.35;2.70;;;13.40;99.90;;;;;;5096920;28;20047;-78
2022/10/19 05:38:11;;;;;;;7.78;2.22;;;11.90;99.90;;;;;;5095113;28;20445;-78
2022/10/19 05:40:37;;;;;;;10.00;2.40;;;12.90;99.90;;;;;;5115188;28;20100;-77
2022/10/19 05:43:03;;;;;;;8.93;2.20;;;13.30;99.90;;;;;;5096817;28;20362;-77
2022/10/19 05:45:28;;;;;;;9.73;2.00;;;11.90;99.90;;;;;;5091690;28;20381;-77
2022/10/19 05:47:54;;;;;;;10.73;2.15;;;12.00;99.90;;;;;;5094081;28;20043;-78
2022/10/19 05:50:20;;;;;;;15.88;2.58;;;12.70;99.90;;;;;;5076173;28;20056;-78
2022/10/19 05:52:45;;;;;;;8.57;2.15;;;12.30;99.90;;;;;;5076983;28;20047;-77
2022/10/19 05:55:11;;;;;;;12.10;2.30;;;11.90;99.90;;;;;;5094609;28;20048;-78
2022/10/19 05:57:37;;;;;;;10.43;2.22;;;11.90;99.90;;;;;;5076436;28;20045;-77
2022/10/19 06:00:04;;;;;;;9.25;1.95;;;11.90;99.90;;;;;;5077355;28;20036;-78
2022/10/19 06:02:30;;;;;;;12.63;2.50;;;11.90;99.90;;;;;;5094186;28;20032;-77
2022/10/19 06:04:56;;;;;;;10.43;2.60;;;12.80;99.90;;;;;;5075777;28;20044;-77
2022/10/19 06:07:22;;;;;;;11.38;2.60;;;13.20;99.90;;;;;;5090679;28;20392;-78
2022/10/19 06:09:47;;;;;;;14.05;2.17;;;12.30;99.90;;;;;;5089631;28;20534;-78
2022/10/19 06:12:13;;;;;;;7.20;2.00;;;12.10;99.90;;;;;;5108904;28;20044;-78
2022/10/19 06:14:39;;;;;;;13.93;2.90;;;12.50;99.90;;;;;;5114433;28;20067;-78
2022/10/19 06:17:05;;;;;;;15.90;3.10;;;12.30;99.90;;;;;;5114172;28;20040;-78
2022/10/19 06:19:31;;;;;;;16.40;2.67;;;12.00;99.90;;;;;;5079224;28;20088;-77
2022/10/19 06:21:56;;;;;;;11.93;2.45;;;12.20;99.90;;;;;;5083249;28;20443;-78
2022/10/19 06:24:22;;;;;;;11.27;2.20;;;12.30;99.90;;;;;;5108580;28;20044;-78
2022/10/19 06:26:48;;;;;;;11.55;2.30;;;13.00;99.90;;;;;;5110334;28;20031;-77
2022/10/19 06:29:13;;;;;;;10.63;2.63;;;12.90;99.90;;;;;;5091456;28;20043;-78
2022/10/19 06:31:39;;;;;;;14.85;2.33;;;12.30;99.90;;;;;;5075301;28;20448;-78
2022/10/19 06:34:05;;;;;;;10.05;2.25;;;12.90;99.90;;;;;;5075721;28;20047;-78
2022/10/19 06:36:31;;;;;;;14.38;2.78;;;12.10;99.90;;;;;;5093525;28;20048;-78
2022/10/19 06:38:58;;;;;;;24.88;4.47;;;12.10;99.90;;;;;;5093744;28;20055;-78
2022/10/19 06:41:24;;;;;;;14.80;2.72;;;12.10;99.90;;;;;;5058737;28;20065;-79
2022/10/19 06:43:54;;;;;;;14.43;2.58;;;12.20;99.90;;;;;;5093486;28;20130;-79
2022/10/19 06:46:22;;;;;;;10.77;2.22;;;12.40;99.90;;;;;;5058590;28;20078;-78
2022/10/19 06:48:59;;;;;;;10.77;2.60;;;12.20;99.90;;;;;;5093592;28;20166;-79
2022/10/19 06:51:27;;;;;;;15.15;3.30;;;12.40;99.90;;;;;;5075197;28;20566;-79
2022/10/19 06:53:54;;;;;;;15.02;2.65;;;12.20;99.90;;;;;;5073887;28;20043;-78
2022/10/19 06:56:20;;;;;;;11.82;2.72;;;12.30;99.90;;;;;;5109333;28;20473;-78
2022/10/19 06:58:45;;;;;;;10.10;1.98;;;12.40;99.90;;;;;;5094318;28;20047;-79
2022/10/19 07:01:12;;;;;;;14.32;2.65;;;12.30;99.90;;;;;;5100631;28;20040;-78
2022/10/19 07:03:39;;;;;;;10.43;2.25;;;12.20;99.90;;;;;;5075559;28;20044;-78
2022/10/19 07:06:07;;;;;;;16.48;2.92;;;12.40;99.90;;;;;;5075113;28;20052;-78
2022/10/19 07:08:34;;;;;;;11.80;2.53;;;12.30;99.90;;;;;;5074912;28;20052;-78
2022/10/19 07:11:02;;;;;;;13.25;2.65;;;13.70;99.90;;;;;;5074578;28;20067;-78
2022/10/19 07:13:29;;;;;;;11.88;2.28;;;12.30;99.90;;;;;;5057940;28;20047;-78
2022/10/19 07:16:05;;;;;;;8.82;2.47;;;12.60;99.90;;;;;;5091871;28;20036;-79
2022/10/19 07:18:32;;;;;;;12.23;2.50;;;12.30;99.90;;;;;;5075070;28;20050;-79
2022/10/19 07:21:00;;;;;;;12.98;2.22;;;12.30;99.90;;;;;;5092026;28;20087;-78
2022/10/19 07:23:28;;;;;;;11.63;2.67;;;12.40;99.90;;;;;;5057926;28;20043;-79
2022/10/19 07:25:59;;;;;;;14.70;2.65;;;13.40;99.90;;;;;;5074551;28;20036;-79
2022/10/19 07:28:26;;;;;;;11.95;2.40;;;12.40;99.90;;;;;;5074113;28;20412;-79
2022/10/19 07:30:52;;;;;;;9.48;2.38;;;13.70;99.90;;;;;;5074829;28;20082;-79
2022/10/19 07:33:17;;;;;;;14.88;2.63;;;12.50;99.90;;;;;;5058192;28;20075;-79
2022/10/19 07:35:43;;;;;;;14.98;2.58;;;13.30;99.90;;;;;;5093674;28;20068;-79
2022/10/19 07:38:08;;;;;;;8.45;2.33;;;12.50;99.90;;;;;;5091907;28;20334;-79
2022/10/19 07:40:37;;;;;;;9.93;2.15;;;13.60;99.90;;;;;;5075127;28;20055;-78
2022/10/19 07:43:03;;;;;;;9.18;1.85;;;12.50;99.90;;;;;;5057766;28;20036;-79
2022/10/19 07:45:29;;;;;;;7.97;2.00;;;12.60;99.90;;;;;;5074821;28;20040;-79
2022/10/19 07:47:55;;;;;;;12.30;2.28;;;13.30;99.90;;;;;;5092766;28;20032;-79
2022/10/19 07:50:23;;;;;;;12.40;2.25;;;13.60;99.90;;;;;;5073661;28;20044;-79
2022/10/19 07:52:51;;;;;;;9.55;2.15;;;12.60;99.90;;;;;;5092254;28;20526;-79
2022/10/19 07:55:16;;;;;;;9.82;2.70;;;12.70;99.90;;;;;;5074711;28;20169;-78
2022/10/19 07:57:45;;;;;;;17.00;2.65;;;12.70;99.90;;;;;;5074669;28;20481;-79
2022/10/19 08:00:11;;;;;;;14.05;2.15;;;12.80;99.90;;;;;;5075138;28;20127;-79
2022/10/19 08:02:36;;;;;;;12.00;2.22;;;12.90;99.90;;;;;;5073166;28;20050;-79
2022/10/19 08:05:02;;;;;;;13.40;2.65;;;13.90;99.90;;;;;;5092492;28;20467;-79
2022/10/19 08:07:28;;;;;;;9.65;2.20;;;12.90;99.90;;;;;;5091926;28;20119;-79
2022/10/19 08:09:53;;;;;;;11.90;2.10;;;12.90;99.90;;;;;;5092822;28;20130;-79
2022/10/19 08:12:19;;;;;;;9.07;2.10;;;14.20;99.90;;;;;;5090304;28;20124;-79
2022/10/19 08:14:46;;;;;;;13.05;2.97;;;13.00;99.90;;;;;;5073573;28;20048;-79
2022/10/19 08:17:16;;;;;;;9.60;2.10;;;13.00;99.90;;;;;;5092115;28;20400;-79
2022/10/19 08:19:43;;;;;;;7.93;1.98;;;13.30;99.90;;;;;;5074627;28;20052;-79
2022/10/19 08:22:08;;;;;;;9.98;2.15;;;13.10;99.90;;;;;;5074898;28;20036;-78
2022/10/19 08:24:34;;;;;;;12.55;2.20;;;13.30;99.90;;;;;;5074224;28;20477;-79
2022/10/19 08:27:01;;;;;;;9.55;2.05;;;14.10;99.90;;;;;;5091242;28;20125;-79
2022/10/19 08:29:27;;;;;;;7.85;2.00;;;13.20;99.90;;;;;;5092198;28;20181;-79
2022/10/19 08:31:53;;;;;;;9.32;1.95;;;13.30;99.90;;;;;;5092185;28;20036;-79
2022/10/19 08:34:19;;;;;;;13.98;2.92;;;13.30;99.90;;;;;;5073940;28;20051;-79
2022/10/19 08:36:46;;;;;;;14.43;2.60;;;14.50;99.90;;;;;;5091734;28;20405;-79
2022/10/19 08:39:13;;;;;;;13.85;2.38;;;13.30;99.90;;;;;;5057238;28;20122;-80
2022/10/19 08:41:38;;;;;;;9.10;2.17;;;13.30;99.90;;;;;;5095370;28;20058;-79
2022/10/19 08:44:25;;;;;;;10.48;2.08;;;13.40;99.90;;;;;;5077962;28;20488;-79
2022/10/19 08:46:56;;;;;;;9.20;2.10;;;13.40;99.90;;;;;;5095696;28;20052;-79
2022/10/19 08:49:25;;;;;;;9.93;2.25;;;13.80;99.90;;;;;;5060991;28;20055;-79
2022/10/19 08:51:59;;;;;;;10.63;2.00;;;13.50;99.90;;;;;;5077383;28;20593;-81
2022/10/19 08:54:37;;;;;;;8.73;2.05;;;13.50;99.90;;;;;;5096044;28;20036;-77
2022/10/19 08:57:06;;;;;;;9.48;2.10;;;13.80;99.90;;;;;;5077618;28;20040;-77
2022/10/19 08:59:55;;;;;;;8.45;2.10;;;13.60;99.90;;;;;;5095494;28;20554;-78
2022/10/19 09:02:39;;;;;;;8.43;2.00;;;13.60;99.90;;;;;;5094141;28;20048;-78
2022/10/19 09:05:15;;;;;;;10.57;1.98;;;13.60;99.90;;;;;;5078523;28;20396;-78
2022/10/19 09:07:44;;;;;;;;;;;13.60;99.90;;;;;;5075293;28;20039;-78
2022/10/19 09:10:23;;;;;;;8.27;2.15;;;13.60;99.90;;;;;;5095459;28;19927;-77
2022/10/19 09:13:01;;;;;;;12.43;2.30;;;14.20;99.90;;;;;;5076566;28;20118;-77
2022/10/19 09:15:27;;;;;;;10.50;2.08;;;14.20;99.90;;;;;;5060188;28;20040;-77
2022/10/19 09:17:52;;;;;;;10.85;2.17;;;13.90;99.90;;;;;;5095756;28;20089;-77
2022/10/19 09:20:31;;;;;;;8.07;1.65;;;14.70;99.90;;;;;;5115007;28;20039;-77
2022/10/19 09:23:27;;;;;;;8.52;2.10;;;13.80;99.90;;;;;;5097036;28;20039;-77
2022/10/19 09:25:54;;;;;;;10.95;2.72;;;14.70;99.90;;;;;;5097134;28;20086;-77
2022/10/19 09:28:58;;;;;;;11.77;2.22;;;13.90;99.90;;;;;;5115948;28;20122;-78
2022/10/19 09:31:31;;;;;;;9.48;2.38;;;13.90;99.90;;;;;;5110388;28;20055;-77
2022/10/19 09:34:12;;;;;;;12.45;2.70;;;14.00;99.90;;;;;;5076665;28;20048;-77
2022/10/19 09:36:41;;;;;;;10.57;2.03;;;14.00;99.90;;;;;;5073066;28;20048;-78
2022/10/19 09:39:11;;;;;;;10.63;2.00;;;14.60;99.90;;;;;;5074719;28;20045;-77
2022/10/19 09:41:48;;;;;;;8.65;2.05;;;14.10;99.90;;;;;;5056340;28;20040;-77
2022/10/19 09:44:15;;;;;;;8.88;1.85;;;14.10;99.90;;;;;;5056585;28;20123;-76
2022/10/19 09:46:52;;;;;;;10.52;2.00;;;14.60;99.90;;;;;;5074420;28;20120;-76
2022/10/19 09:49:43;;;;;;;10.15;1.80;;;14.50;99.90;;;;;;5074326;28;20044;-76
2022/10/19 09:52:36;;;;;;;7.22;1.70;;;14.00;99.90;;;;;;5074763;28;20475;-76
2022/10/19 09:55:27;;;;;;;8.13;2.10;;;14.00;99.90;;;;;;5075740;28;20153;-77
2022/10/19 09:58:16;;;;;;;7.93;1.80;;;13.90;99.90;;;;;;5078900;28;20105;-77
2022/10/19 10:00:46;;;;;;;10.60;2.00;;;13.90;99.90;;;;;;5082553;28;20040;-77
2022/10/19 10:03:48;;;;;;;7.55;1.80;;;13.90;99.90;;;;;;5091376;28;20124;-77
2022/10/19 10:06:16;;;;;;;6.75;1.73;;;13.90;99.90;;;;;;5045062;28;20147;-77
2022/10/19 10:08:56;;;;;;;11.20;1.85;;;14.10;99.90;;;;;;5073127;28;20044;-78
2022/10/19 10:11:23;;;;;;;8.95;1.83;;;13.90;99.90;;;;;;5077690;28;20044;-78
2022/10/19 10:13:52;;;;;;;12.85;1.90;;;14.80;99.90;;;;;;5087789;28;20427;-76
2022/10/19 10:16:20;;;;;;;11.73;2.33;;;13.80;99.90;;;;;;5093082;28;20046;-78
2022/10/19 10:18:55;;;;;;;9.65;2.00;;;13.90;99.90;;;;;;5079845;28;20076;-80
2022/10/19 10:21:34;;;;;;;9.35;1.77;;;14.90;99.90;;;;;;5077087;28;20127;-80
2022/10/19 10:24:12;;;;;;;10.93;2.20;;;14.50;99.90;;;;;;5075770;28;20412;-80
2022/10/19 10:26:43;;;;;;;11.43;2.25;;;14.30;99.90;;;;;;5092558;28;20476;-78
2022/10/19 10:29:36;;;;;;;7.97;1.92;;;14.30;99.90;;;;;;5094122;28;20434;-76
2022/10/19 10:32:22;;;;;;;10.55;1.80;;;14.70;99.90;;;;;;5089368;28;20208;-78
2022/10/19 10:35:01;;;;;;;8.93;1.90;;;14.70;99.90;;;;;;5094389;28;20047;-78
2022/10/19 10:37:40;;;;;;;7.82;1.70;;;14.80;99.90;;;;;;5075262;28;20067;-78
2022/10/19 10:40:25;;;;;;;9.40;1.90;;;14.80;99.90;;;;;;5055784;28;20045;-78
2022/10/19 10:42:54;;;;;;;10.80;1.77;;;14.90;99.90;;;;;;5071829;28;20127;-76
2022/10/19 10:45:28;;;;;;;10.48;2.53;;;14.90;99.90;;;;;;5072161;28;20052;-76
2022/10/19 10:47:53;;;;;;;6.45;1.80;;;14.90;99.90;;;;;;5073120;28;20040;-76
2022/10/19 10:50:26;;;;;;;7.85;1.63;;;14.90;99.90;;;;;;5086690;28;20052;-77
2022/10/19 10:53:06;;;;;;;11.52;2.30;;;14.90;99.90;;;;;;5086870;28;20041;-78
2022/10/19 10:55:33;;;;;;;7.93;1.92;;;15.20;99.90;;;;;;5073698;28;20044;-77
2022/10/19 10:58:17;;;;;;;8.15;1.92;;;14.90;99.90;;;;;;5091052;28;20040;-76
2022/10/19 11:00:44;;;;;;;8.52;1.70;;;14.90;99.90;;;;;;5072047;28;20040;-77
2022/10/19 11:03:16;;;;;;;8.68;1.80;;;14.90;99.90;;;;;;5070671;28;20047;-76
2022/10/19 11:05:52;;;;;;;9.40;1.90;;;14.90;99.90;;;;;;5072691;28;20054;-77
2022/10/19 11:08:45;;;;;;;6.25;2.15;;;15.60;99.90;;;;;;5072510;28;20084;-76
2022/10/19 11:11:26;;;;;;;8.00;1.88;;;15.00;99.90;;;;;;5083101;28;20043;-76
2022/10/19 11:14:04;;;;;;;8.55;2.03;;;15.10;99.90;;;;;;5072157;28;20092;-77
2022/10/19 11:16:41;;;;;;;5.45;1.67;;;15.20;99.90;;;;;;5070136;28;20043;-77
2022/10/19 11:19:16;;;;;;;10.38;1.90;;;15.20;99.90;;;;;;5073167;28;20413;-86
2022/10/19 11:22:00;;;;;;;10.45;1.92;;;15.30;99.90;;;;;;5070116;28;20268;-83
2022/10/19 11:24:45;;;;;;;6.32;1.65;;;15.30;99.90;;;;;;5075982;28;20044;-86
2022/10/19 11:27:16;;;;;;;9.07;1.90;;;;;;;;;;5080224;28;20105;-83
2022/10/19 11:29:56;;;;;;;7.47;2.17;;;;;;;;;;5090257;28;20044;-83
2022/10/19 11:32:27;;;;;;;12.05;2.15;;;;;;;;;;5088273;28;20051;-85
2022/10/19 11:35:00;;;;;;;6.95;1.77;;;;;;;;;;5069180;28;20436;-85
2022/10/19 11:37:38;;;;;;;10.07;2.03;;;;;;;;;;5071376;28;20483;-86
2022/10/19 11:40:11;;;;;;;8.77;2.10;;;;;;;;;;5087880;28;20032;-84
2022/10/19 11:42:41;;;;;;;9.18;2.00;;;;;;;;;;5069804;28;20150;-85
2022/10/19 11:45:20;;;;;;;7.57;1.80;;;;;;;;;;5084108;28;20492;-85
2022/10/19 11:47:58;;;;;;;11.15;2.00;;;;;;;;;;5066752;28;20055;-84
2022/10/19 11:50:27;;;;;;;9.63;1.83;;;;;;;;;;5086922;28;20074;-85
2022/10/19 11:53:07;;;;;;;9.25;2.17;;;;;;;;;;5082276;28;20094;-84
2022/10/19 11:55:39;;;;;;;8.30;1.90;;;;;;;;;;5074649;28;20489;-86
2022/10/19 11:58:23;;;;;;;9.25;1.98;;;;;;;;;;5089833;28;20054;-77
2022/10/19 12:00:56;;;;;;;8.63;1.92;;;;;;;;;;5080598;28;20048;-78
2022/10/19 12:03:55;;;;;;;10.02;2.20;;;15.50;99.90;;;;;;5092686;28;20435;-77
2022/10/19 12:06:51;;;;;;;11.15;1.88;;;16.40;99.90;;;;;;5091558;28;20401;-78
2022/10/19 12:09:35;;;;;;;8.20;1.90;;;;;;;;;;5092597;28;20040;-77
2022/10/19 12:12:20;;;;;;;8.82;1.65;;;;;;;;;;5092720;28;20051;-77
2022/10/19 12:14:47;;;;;;;5.55;1.80;;;;;;;;;;5093996;28;20044;-78
2022/10/19 12:17:15;;;;;;;5.88;1.80;;;;;;;;;;5096374;28;20046;-78
2022/10/19 12:19:47;;;;;;;11.63;2.17;;;;;;;;;;5083708;28;20056;-77
2022/10/19 12:22:16;;;;;;;9.93;1.80;;;;;;;;;;5058635;28;20404;-78
2022/10/19 12:24:42;;;;;;;10.23;2.00;;;;;;;;;;5080403;28;20396;-78
2022/10/19 12:27:12;;;;;;;6.28;2.00;;;;;;;;;;5075256;28;20131;-77
2022/10/19 12:29:40;;;;;;;9.60;2.10;;;;;;;;;;5074930;28;20060;-77
2022/10/19 12:32:06;;;;;;;6.28;1.60;;;;;;;;;;5058350;28;20044;-78
2022/10/19 12:34:40;;;;;;;9.25;1.80;;;;;;;;;;5076515;28;20052;-78
2022/10/19 12:37:09;;;;;;;8.82;1.85;;;;;;;;;;5086320;28;20052;-76
2022/10/19 12:39:38;;;;;;;7.68;1.88;;;;;;;;;;5095822;28;20358;-75
2022/10/19 12:42:22;;;;;;;6.20;1.73;;;;;;;;;;5077647;28;20452;-76
2022/10/19 12:45:07;;;;;;;7.18;2.03;;;;;;;;;;5077427;28;20040;-78
2022/10/19 12:47:33;;;;;;;8.88;1.95;;;;;;;;;;5061041;28;20418;-76
2022/10/19 12:49:59;;;;;;;5.88;1.70;;;;;;;;;;5095941;28;20555;-78
2022/10/19 12:52:35;;;;;;;5.70;1.65;;;;;;;;;;5060698;28;20035;-76
2022/10/19 12:55:16;;;;;;;5.25;1.80;;;;;;;;;;5095492;28;20135;-78
2022/10/19 12:57:47;;;;;;;9.57;2.28;;;;;;;;;;5077104;28;20488;-76
2022/10/19 13:00:19;;;;;;;6.72;1.80;;;;;;;;;;5094943;28;20055;-76
2022/10/19 13:02:46;;;;;;;7.90;2.20;;;;;;;;;;5095488;28;20044;-76
2022/10/19 13:05:22;;;;;;;7.70;2.00;;;;;;;;;;5077853;28;20040;-76
2022/10/19 13:07:49;;;;;;;6.60;1.95;;;;;;;;;;5095303;28;20048;-76
2022/10/19 13:10:20;;;;;;;7.78;1.85;;;;;;;;;;5095386;28;20040;-76
2022/10/19 13:12:47;;;;;;;8.23;1.77;;;;;;;;;;5077003;28;20424;-76
2022/10/19 13:15:32;;;;;;;9.73;1.90;;;;;;;;;;5072430;28;20044;-76